createdAt,value
2019-05-19T00:00:27.384Z,100395.69
2019-05-19T00:05:34.581Z,100396.94
2019-05-19T00:10:41.581Z,100408.48
2019-05-19T00:15:48.484Z,100408.16
2019-05-19T00:20:55.500Z,100408.16
2019-05-19T00:26:02.473Z,100413.41
2019-05-19T00:31:09.543Z,100402.08
2019-05-19T00:36:19.529Z,100409.22
2019-05-19T00:41:25.434Z,100408.14
2019-05-19T00:46:32.468Z,100402.72
2019-05-19T00:51:39.907Z,100402.72
2019-05-19T00:56:48.455Z,100401.83
2019-05-19T01:01:55.472Z,100399.50
2019-05-19T01:07:02.671Z,100403.98
2019-05-19T01:12:13.289Z,100397.79
2019-05-19T01:17:20.456Z,100397.79
2019-05-19T01:22:27.609Z,100394.75
2019-05-19T01:27:34.449Z,100397.06
2019-05-19T01:32:41.505Z,100390.34
2019-05-19T01:37:48.444Z,100392.52
2019-05-19T01:42:55.478Z,100392.52
2019-05-19T01:48:03.463Z,100387.68
2019-05-19T01:53:10.476Z,100385.03
2019-05-19T01:58:17.459Z,100385.03
2019-05-19T02:03:24.497Z,100388.80
2019-05-19T02:08:31.602Z,100371.30
2019-05-19T02:13:38.602Z,100385.00
2019-05-19T02:18:45.466Z,100375.00
2019-05-19T02:23:52.516Z,100375.00
2019-05-19T02:28:59.474Z,100372.20
2019-05-19T02:34:06.587Z,100379.31
2019-05-19T02:39:13.532Z,100373.13
2019-05-19T02:44:22.089Z,100377.51
2019-05-19T02:49:32.040Z,100385.38
2019-05-19T02:54:40.072Z,100385.38
2019-05-19T02:59:47.581Z,100375.38
2019-05-19T03:04:54.500Z,100377.08
2019-05-19T03:10:01.444Z,100384.05
2019-05-19T03:15:09.093Z,100384.05
2019-05-19T03:20:16.618Z,100380.11
2019-05-19T03:25:26.586Z,100389.30
2019-05-19T03:30:51.504Z,100389.30
2019-05-19T03:35:58.460Z,100389.03
2019-05-19T03:41:05.587Z,100391.26
2019-05-19T03:46:12.434Z,100394.02
2019-05-19T03:51:30.231Z,100394.02
2019-05-19T03:56:28.411Z,100391.66
2019-05-19T04:01:35.577Z,100399.01
2019-05-19T04:06:42.435Z,100403.72
2019-05-19T04:11:49.486Z,100403.72
2019-05-19T04:16:56.430Z,100396.70
2019-05-19T04:22:03.546Z,100397.80
2019-05-19T04:27:12.574Z,100396.02
2019-05-19T04:32:19.589Z,100394.98
2019-05-19T04:37:26.439Z,100400.02
2019-05-19T04:42:33.470Z,100400.02
2019-05-19T04:47:40.536Z,100405.56
2019-05-19T04:52:48.448Z,100395.76
2019-05-19T04:57:55.470Z,100393.88
2019-05-19T05:03:02.516Z,100394.95
2019-05-19T05:08:25.201Z,100392.31
2019-05-19T05:13:18.437Z,100392.31
2019-05-19T05:18:26.438Z,100387.70
2019-05-19T05:23:33.455Z,100386.42
2019-05-19T05:28:40.456Z,100384.48
2019-05-19T05:33:47.556Z,100387.27
2019-05-19T05:38:54.470Z,100388.25
2019-05-19T05:44:02.290Z,100385.87
2019-05-19T05:49:08.330Z,100389.45
2019-05-19T05:54:15.626Z,100390.32
2019-05-19T05:59:22.468Z,100392.82
2019-05-19T06:04:29.554Z,100380.89
2019-05-19T06:09:36.561Z,100388.97
2019-05-19T06:14:43.552Z,100392.45
2019-05-19T06:19:50.599Z,100383.78
2019-05-19T06:24:59.238Z,100389.87
2019-05-19T06:30:10.723Z,100389.87
2019-05-19T06:35:18.097Z,100385.97
2019-05-19T06:40:25.455Z,100380.55
2019-05-19T06:45:38.031Z,100383.80
2019-05-19T06:50:44.292Z,100391.03
2019-05-19T06:55:51.540Z,100382.97
2019-05-19T07:00:59.244Z,100379.87
2019-05-19T07:06:12.478Z,100378.03
2019-05-19T07:11:19.596Z,100375.02
2019-05-19T07:16:26.461Z,100374.36
2019-05-19T07:21:33.564Z,100374.36
2019-05-19T07:26:41.584Z,100363.89
2019-05-19T07:31:48.748Z,100362.34
2019-05-19T07:36:55.618Z,100362.34
2019-05-19T07:42:03.599Z,100357.80
2019-05-19T07:47:10.526Z,100359.11
2019-05-19T07:52:17.741Z,100355.33
2019-05-19T07:57:24.589Z,100355.33
2019-05-19T08:02:31.653Z,100346.78
2019-05-19T08:07:38.538Z,100341.49
2019-05-19T08:12:46.854Z,100335.37
2019-05-19T08:17:54.124Z,100335.37
2019-05-19T08:23:01.447Z,100330.99
2019-05-19T08:28:09.236Z,100333.75
2019-05-19T08:33:16.442Z,100337.70
2019-05-19T08:38:23.614Z,100337.18
2019-05-19T08:43:29.339Z,100337.18
2019-05-19T08:48:37.744Z,100328.09
2019-05-19T08:53:46.449Z,100335.70
2019-05-19T08:58:53.474Z,100328.26
2019-05-19T09:04:00.557Z,100305.89
2019-05-19T09:09:08.915Z,100315.71
2019-05-19T09:14:15.727Z,100315.71
2019-05-19T09:19:22.592Z,100302.19
2019-05-19T09:24:31.104Z,100297.28
2019-05-19T09:29:38.463Z,100297.28
2019-05-19T09:34:46.504Z,100294.50
2019-05-19T09:39:53.437Z,100279.47
2019-05-19T09:45:02.127Z,100265.53
2019-05-19T09:50:08.306Z,100265.41
2019-05-19T09:55:14.786Z,100261.60
2019-05-19T10:00:22.259Z,100266.41
2019-05-19T10:05:28.504Z,100248.71
2019-05-19T10:11:31.443Z,100248.41
2019-05-19T10:16:40.438Z,100247.44
2019-05-19T10:21:47.466Z,100237.24
2019-05-19T10:26:56.924Z,100234.98
2019-05-19T10:32:04.053Z,100237.02
2019-05-19T10:37:11.256Z,100226.25
2019-05-19T10:42:17.293Z,100227.95
2019-05-19T10:47:26.446Z,100230.00
2019-05-19T10:52:33.435Z,100231.10
2019-05-19T10:57:41.449Z,100220.54
2019-05-19T11:02:48.924Z,100222.25
2019-05-19T11:07:55.739Z,100226.27
2019-05-19T11:13:03.920Z,100218.72
2019-05-19T11:18:10.664Z,100210.19
2019-05-19T11:23:17.568Z,100206.72
2019-05-19T11:28:24.438Z,100199.81
2019-05-19T11:33:31.460Z,100199.81
2019-05-19T11:38:38.585Z,100190.63
2019-05-19T11:43:45.510Z,100193.41
2019-05-19T11:48:52.925Z,100188.59
2019-05-19T11:53:59.640Z,100188.59
2019-05-19T11:59:06.726Z,100175.45
2019-05-19T12:04:13.583Z,100175.45
2019-05-19T12:09:20.424Z,100172.50
2019-05-19T12:14:28.755Z,100172.50
2019-05-19T12:19:35.534Z,100167.48
2019-05-19T12:24:44.924Z,100167.03
2019-05-19T12:29:51.583Z,100159.34
2019-05-19T12:34:58.462Z,100157.12
2019-05-19T12:40:06.389Z,100157.12
2019-05-19T12:45:15.042Z,100156.73
2019-05-19T12:50:21.340Z,100157.86
2019-05-19T12:55:27.262Z,100151.43
2019-05-19T13:00:33.305Z,100146.64
2019-05-19T13:05:39.344Z,100139.23
2019-05-19T13:10:45.282Z,100137.05
2019-05-19T13:15:52.400Z,100134.40
2019-05-19T13:20:59.449Z,100129.01
2019-05-19T13:26:06.575Z,100129.75
2019-05-19T13:31:13.497Z,100116.86
2019-05-19T13:36:20.524Z,100114.88
2019-05-19T13:41:27.597Z,100107.91
2019-05-19T13:46:34.522Z,100111.61
2019-05-19T13:51:41.578Z,100111.40
2019-05-19T13:56:48.550Z,100106.12
2019-05-19T14:01:56.549Z,100108.45
2019-05-19T14:07:04.779Z,100092.63
2019-05-19T14:12:11.568Z,100092.63
2019-05-19T14:17:18.616Z,100090.15
2019-05-19T14:22:25.524Z,100097.94
2019-05-19T14:27:32.910Z,100097.94
2019-05-19T14:32:40.246Z,100128.30
2019-05-19T14:37:46.387Z,100123.55
2019-05-19T14:42:58.117Z,100135.82
2019-05-19T14:48:05.531Z,100130.53
2019-05-19T14:53:12.508Z,100133.65
2019-05-19T14:58:19.574Z,100136.87
2019-05-19T15:03:26.522Z,100117.61
2019-05-19T15:08:33.421Z,100117.61
2019-05-19T15:13:40.573Z,100137.75
2019-05-19T15:18:47.615Z,100135.47
2019-05-19T15:23:54.565Z,100128.27
2019-05-19T15:29:01.624Z,100128.27
2019-05-19T15:34:08.566Z,100113.91
2019-05-19T15:39:15.562Z,100109.91
2019-05-19T15:44:22.586Z,100109.91
2019-05-19T15:49:29.862Z,100096.95
2019-05-19T15:54:36.601Z,100096.95
2019-05-19T15:59:44.599Z,100086.15
2019-05-19T16:04:51.714Z,100088.17
2019-05-19T16:09:58.601Z,100081.08
2019-05-19T16:19:36.579Z,100081.64
2019-05-19T16:24:43.590Z,100079.55
2019-05-19T16:29:50.458Z,100078.83
2019-05-19T16:34:57.524Z,100078.83
2019-05-19T16:40:04.588Z,100075.57
2019-05-19T16:45:13.250Z,100071.18
2019-05-19T16:50:19.475Z,100071.18
2019-05-19T16:55:28.309Z,100073.24
2019-05-19T17:00:35.524Z,100077.39
2019-05-19T17:05:42.771Z,100075.30
2019-05-19T17:10:49.585Z,100071.94
2019-05-19T17:15:56.595Z,100073.00
2019-05-19T17:21:03.569Z,100063.59
2019-05-19T17:26:12.460Z,100063.59
2019-05-19T17:31:19.462Z,100059.09
2019-05-19T17:36:27.565Z,100068.64
2019-05-19T17:41:34.589Z,100064.13
2019-05-19T17:46:41.526Z,100055.89
2019-05-19T17:51:51.590Z,100045.59
2019-05-19T17:57:00.501Z,100051.08
2019-05-19T18:02:07.453Z,100051.08
2019-05-19T18:07:14.500Z,100052.30
2019-05-19T18:12:21.595Z,100060.36
2019-05-19T18:17:28.453Z,100068.02
2019-05-19T18:22:35.502Z,100068.02
2019-05-19T18:27:42.867Z,100070.81
2019-05-19T18:32:49.694Z,100070.92
2019-05-19T18:37:56.601Z,100071.71
2019-05-19T18:43:03.609Z,100083.64
2019-05-19T18:48:10.592Z,100103.48
2019-05-19T18:53:17.469Z,100105.22
2019-05-19T18:58:24.587Z,100105.22
2019-05-19T19:03:32.063Z,100129.23
2019-05-19T19:08:39.453Z,100129.23
2019-05-19T19:13:45.682Z,100145.34
2019-05-19T19:18:52.603Z,100130.56
2019-05-19T19:23:59.585Z,100104.14
2019-05-19T19:29:06.804Z,100104.14
2019-05-19T19:34:14.025Z,100102.14
2019-05-19T19:39:21.263Z,100100.67
2019-05-19T19:44:27.318Z,100099.05
2019-05-19T19:49:34.429Z,100107.45
2019-05-19T19:54:40.330Z,100106.87
2019-05-19T19:59:46.301Z,100105.67
2019-05-19T20:04:53.579Z,100111.01
2019-05-19T20:09:59.353Z,100112.84
2019-05-19T20:15:07.656Z,100112.59
2019-05-19T20:20:15.608Z,100114.78
2019-05-19T20:25:22.583Z,100114.78
2019-05-19T20:30:35.486Z,100113.44
2019-05-19T20:35:39.999Z,100113.44
2019-05-19T20:40:46.904Z,100118.02
2019-05-19T20:45:54.922Z,100117.33
2019-05-19T20:51:02.910Z,100117.11
2019-05-19T20:56:09.859Z,100117.25
2019-05-19T21:01:16.725Z,100121.47
2019-05-19T21:06:23.597Z,100114.13
2019-05-19T21:11:30.450Z,100103.65
2019-05-19T21:16:38.448Z,100103.65
2019-05-19T21:21:47.235Z,100107.23
2019-05-19T21:26:54.674Z,100103.42
2019-05-19T21:32:01.588Z,100108.93
2019-05-19T21:37:08.597Z,100108.23
2019-05-19T21:42:15.602Z,100113.90
2019-05-19T21:47:22.633Z,100109.69
2019-05-19T21:52:29.584Z,100116.41
2019-05-19T21:57:37.032Z,100110.25
2019-05-19T22:02:44.271Z,100110.25
2019-05-19T22:08:08.319Z,100104.28
2019-05-19T22:13:15.429Z,100102.22
2019-05-19T22:18:22.652Z,100111.00
2019-05-19T22:23:29.458Z,100098.88
2019-05-19T22:28:36.451Z,100098.88
2019-05-19T22:33:44.446Z,100108.48
2019-05-19T22:38:53.237Z,100112.27
2019-05-19T22:44:00.443Z,100106.55
2019-05-19T22:49:07.592Z,100101.89
2019-05-19T22:54:14.460Z,100096.20
2019-05-19T22:59:22.573Z,100096.20
2019-05-19T23:04:29.580Z,100106.31
2019-05-19T23:09:35.317Z,100106.31
2019-05-19T23:14:42.401Z,100108.92
2019-05-19T23:19:49.452Z,100104.00
2019-05-19T23:24:56.668Z,100099.36
2019-05-19T23:30:03.556Z,100090.73
2019-05-19T23:35:10.786Z,100090.73
2019-05-19T23:40:18.030Z,100096.84
2019-05-19T23:45:25.235Z,100095.08
2019-05-19T23:50:32.555Z,100100.58
2019-05-19T23:55:39.521Z,100075.83
